createdAt,value
2017-09-02T00:01:34.101Z,14.24
2017-09-02T00:11:34.141Z,14.25
2017-09-02T00:21:34.173Z,14.35
2017-09-02T00:31:34.109Z,14.29
2017-09-02T00:41:34.150Z,14.35
2017-09-02T00:51:34.169Z,14.21
2017-09-02T01:01:34.602Z,14.31
2017-09-02T01:11:34.379Z,14.19
2017-09-02T01:21:34.821Z,14.17
2017-09-02T01:31:34.176Z,14.09
2017-09-02T01:41:34.135Z,14.1
2017-09-02T01:51:34.754Z,14.07
2017-09-02T02:01:34.157Z,14.01
2017-09-02T02:11:34.110Z,13.92
2017-09-02T02:21:34.211Z,13.77
2017-09-02T02:31:34.130Z,13.8
2017-09-02T02:41:34.103Z,13.67
2017-09-02T02:51:34.192Z,13.47
2017-09-02T03:01:34.130Z,13.59
2017-09-02T03:11:34.112Z,13.47
2017-09-02T03:21:34.149Z,13.58
2017-09-02T03:31:34.101Z,13.52
2017-09-02T03:41:34.180Z,13.43
2017-09-02T03:51:34.139Z,13.38
2017-09-02T04:01:34.095Z,13.25
2017-09-02T04:11:34.151Z,13.03
2017-09-02T04:21:34.125Z,12.79
2017-09-02T04:31:34.410Z,12.87
2017-09-02T04:41:34.142Z,12.59
2017-09-02T04:51:34.115Z,12.69
2017-09-02T05:01:34.151Z,12.54
2017-09-02T05:11:34.230Z,12.56
2017-09-02T05:21:34.081Z,12.59
2017-09-02T05:31:34.176Z,12.64
2017-09-02T05:41:34.131Z,12.78
2017-09-02T05:51:34.090Z,12.78
2017-09-02T06:01:34.217Z,13.06
2017-09-02T06:11:34.094Z,13.33
2017-09-02T06:21:34.162Z,13.71
2017-09-02T06:31:34.112Z,14.01
2017-09-02T06:41:34.090Z,14.31
2017-09-02T06:51:34.446Z,14.6
2017-09-02T07:01:34.104Z,14.8
2017-09-02T07:11:34.176Z,15.12
2017-09-02T07:21:34.131Z,15.41
2017-09-02T07:31:34.101Z,15.72
2017-09-02T07:41:34.125Z,15.97
2017-09-02T07:51:34.115Z,16.44
2017-09-02T08:01:34.306Z,16.96
2017-09-02T08:11:34.105Z,18.17
2017-09-02T08:21:34.768Z,23.22
2017-09-02T08:31:34.134Z,25.37
2017-09-02T08:41:34.648Z,21.92
2017-09-02T08:51:34.494Z,20.43
2017-09-02T09:01:34.437Z,19.98
2017-09-02T09:11:34.426Z,19.87
2017-09-02T09:21:34.211Z,19.97
2017-09-02T09:31:34.152Z,20.06
2017-09-02T09:41:34.095Z,19.76
2017-09-02T09:51:34.437Z,19.63
2017-09-02T10:01:34.257Z,19.63
2017-09-02T10:11:34.082Z,19.39
2017-09-02T10:21:34.073Z,20.5
2017-09-02T10:31:34.129Z,20.9
2017-09-02T10:41:34.119Z,20.64
2017-09-02T10:51:34.227Z,20.74
2017-09-02T11:01:34.131Z,20.79
2017-09-02T11:11:34.252Z,20.89
2017-09-02T11:21:34.095Z,20.91
2017-09-02T11:31:34.182Z,20.84
2017-09-02T11:41:34.838Z,20.72
2017-09-02T11:51:34.305Z,20.64
2017-09-02T12:11:40.922Z,21.35
2017-09-02T12:21:36.249Z,22.01
2017-09-02T12:31:51.826Z,21.48
2017-09-02T12:41:50.538Z,21.05
2017-09-02T12:51:40.512Z,22.06
2017-09-02T13:01:48.019Z,22.17
2017-09-02T13:11:41.635Z,22.99
2017-09-02T13:31:35.314Z,21.72
2017-09-02T14:21:38.665Z,22.28
2017-09-02T14:31:35.250Z,22.01
2017-09-02T14:41:34.148Z,21.54
2017-09-02T14:51:35.230Z,21.56
2017-09-02T15:01:49.070Z,21.48
2017-09-02T15:11:39.004Z,21.64
2017-09-02T15:21:34.220Z,21.42
2017-09-02T15:31:34.201Z,21.44
2017-09-02T15:41:35.156Z,21.75
2017-09-02T15:51:34.087Z,21.79
2017-09-02T16:01:36.428Z,21.69
2017-09-02T16:11:34.256Z,21.94
2017-09-02T16:21:34.183Z,21.06
2017-09-02T16:31:34.199Z,21.35
2017-09-02T16:41:34.205Z,20.74
2017-09-02T16:51:34.189Z,20.66
2017-09-02T17:01:34.205Z,20.28
2017-09-02T17:11:34.167Z,20.02
2017-09-02T17:21:34.241Z,19.91
2017-09-02T17:31:34.215Z,19.54
2017-09-02T17:41:34.177Z,18.82
2017-09-02T17:51:34.253Z,18.19
2017-09-02T18:01:34.169Z,17.32
2017-09-02T18:11:34.234Z,16.81
2017-09-02T18:21:34.214Z,16.3
2017-09-02T18:31:34.288Z,15.78
2017-09-02T18:41:34.205Z,15.24
2017-09-02T18:51:35.578Z,14.83
2017-09-02T19:01:34.312Z,14.53
2017-09-02T19:11:34.278Z,14.5
2017-09-02T19:21:34.265Z,14.28
2017-09-02T19:31:34.294Z,14.09
2017-09-02T19:41:34.294Z,13.92
2017-09-02T19:52:05.481Z,13.37
2017-09-02T20:02:12.164Z,13.29
2017-09-02T20:12:14.091Z,13.18
2017-09-02T20:22:12.825Z,12.96
2017-09-02T20:32:12.157Z,12.92
2017-09-02T20:42:11.411Z,12.6
2017-09-02T20:52:11.045Z,12.54
2017-09-02T21:02:13.416Z,12.24
2017-09-02T21:12:12.824Z,12.3
2017-09-02T21:21:34.363Z,12.16
2017-09-02T21:31:34.407Z,12.04
2017-09-02T21:41:34.350Z,11.85
2017-09-02T21:51:34.450Z,11.7
2017-09-02T22:01:34.392Z,11.59
2017-09-02T22:11:34.421Z,11.35
2017-09-02T22:21:34.525Z,11.43
2017-09-02T22:31:34.491Z,11.28
2017-09-02T22:41:34.430Z,11.17
2017-09-02T22:51:34.475Z,11.03
2017-09-02T23:01:34.575Z,11.07
2017-09-02T23:11:34.465Z,10.91
2017-09-02T23:21:34.504Z,10.7
2017-09-02T23:31:34.607Z,10.59
2017-09-02T23:41:34.500Z,10.51
2017-09-02T23:51:34.595Z,10.44
